Time;durP1;ratioP1;P1;durP2;ratioP2;P2;SDS_P1;SDS_P2;PMS_P1;PMS_P2;Temp;Humidity;BMP_temperature;BMP_pressure;BME280_temperature;BME280_humidity;BME280_pressure;Samples;Min_cycle;Max_cycle;Signal;HPM_P1;HPM_P2
2021/12/25 00:01:35;;;;;;;5.03;1.52;;;;;;;;;;4999102;28;20099;-78
2021/12/25 00:04:02;;;;;;;2.72;1.77;;;;;;;;;;4991745;28;20507;-75
2021/12/25 00:06:28;;;;;;;3.25;2.08;;;;;;;;;;5021089;28;20046;-73
2021/12/25 00:08:54;;;;;;;1.40;1.30;;;;;;;;;;4998252;28;20041;-77
2021/12/25 00:11:20;;;;;;;2.22;1.52;;;;;;;;;;5015386;28;20084;-78
2021/12/25 00:13:47;;;;;;;2.90;1.50;;;;;;;;;;5006434;28;20045;-78
2021/12/25 00:16:15;;;;;;;2.30;1.50;;;;;;;;;;5033792;28;20049;-73
2021/12/25 00:18:41;;;;;;;1.75;1.30;;;;;;;;;;5022331;28;20057;-76
2021/12/25 00:21:09;;;;;;;3.33;1.33;;;;;;;;;;5020818;28;20060;-77
2021/12/25 00:23:37;;;;;;;2.40;1.30;;;;;;;;;;5017923;28;20051;-76
2021/12/25 00:26:23;;;;;;;3.35;1.13;;;;;;;;;;5018989;28;20077;-77
2021/12/25 00:29:00;;;;;;;4.15;1.42;;;;;;;;;;4985267;28;20159;-71
2021/12/25 00:34:23;;;;;;;3.67;1.30;;;;;;;;;;5007372;28;20539;-75
2021/12/25 00:36:51;;;;;;;1.67;1.30;;;;;;;;;;5018233;28;20131;-73
2021/12/25 00:39:17;;;;;;;3.58;1.40;;;;;;;;;;5013993;28;20703;-73
2021/12/25 00:41:43;;;;;;;1.27;1.10;;;;;;;;;;5014619;28;20053;-76
2021/12/25 00:44:10;;;;;;;3.63;1.05;;;;;;;;;;5019869;28;20255;-73
2021/12/25 00:46:36;;;;;;;1.23;0.98;;;;;;;;;;5020160;28;20251;-76
2021/12/25 00:49:02;;;;;;;1.70;1.00;;;;;;;;;;4968579;28;20115;-75
2021/12/25 00:51:29;;;;;;;1.35;1.00;;;;;;;;;;5004449;28;20054;-74
2021/12/25 00:53:55;;;;;;;2.45;1.10;;;;;;;;;;5000038;28;20132;-72
2021/12/25 00:56:21;;;;;;;2.40;1.10;;;;;;;;;;4999841;28;20876;-78
2021/12/25 00:58:47;;;;;;;1.90;1.20;;;;;;;;;;5012782;28;20057;-76
2021/12/25 01:01:13;;;;;;;2.25;1.13;;;;;;;;;;5011494;28;20049;-78
2021/12/25 01:03:40;;;;;;;2.03;1.10;;;;;;;;;;5015761;28;20542;-81
2021/12/25 01:06:06;;;;;;;1.65;1.10;;;;;;;;;;5000870;28;20388;-76
2021/12/25 01:08:32;;;;;;;1.92;1.00;;;;;;;;;;4994730;28;20057;-74
2021/12/25 01:10:58;;;;;;;2.05;0.98;;;;;;;;;;5003168;28;20071;-77
2021/12/25 01:13:29;;;;;;;2.22;1.10;;;;;;;;;;5017573;28;20124;-72
2021/12/25 01:29:47;;;;;;;2.25;1.00;;;;;;;;;;4998671;28;20497;-74
2021/12/25 01:35:10;;;;;;;1.35;1.10;;;;;;;;;;5013834;28;20057;-75
2021/12/25 01:40:24;;;;;;;1.02;0.90;;;;;;;;;;5011027;28;20589;-76
2021/12/25 01:48:14;;;;;;;;;;;;;;;;;;5001713;28;20057;-76
2021/12/25 01:50:41;;;;;;;2.88;0.93;;;;;;;;;;5019769;28;20436;-76
2021/12/25 01:53:08;;;;;;;1.95;1.00;;;;;;;;;;4993116;28;20049;-79
2021/12/25 01:55:34;;;;;;;1.83;0.95;;;;;;;;;;5010464;28;20081;-79
2021/12/25 01:58:03;;;;;;;1.63;0.98;;;;;;;;;;4991200;28;20442;-76
2021/12/25 02:00:37;;;;;;;1.08;0.90;;;;;;;;;;4994450;28;20053;-75
2021/12/25 02:03:05;;;;;;;1.85;1.05;;;;;;;;;;4987209;28;20103;-80
2021/12/25 02:05:32;;;;;;;1.67;1.00;;;;;;;;;;4974401;28;20054;-75
2021/12/25 02:07:59;;;;;;;2.00;1.10;;;;;;;;;;5007855;28;20081;-80
2021/12/25 02:10:25;;;;;;;1.52;1.10;;;;;;;;;;4987007;28;20882;-74
2021/12/25 02:12:52;;;;;;;3.30;1.20;;;;;;;;;;5003637;28;20088;-76
2021/12/25 02:15:21;;;;;;;1.38;1.10;;;;;;;;;;4991119;28;20107;-78
2021/12/25 02:20:28;;;;;;;1.83;1.30;;;;;;;;;;5007808;28;20060;-81
2021/12/25 02:23:01;;;;;;;1.80;1.10;;;;;;;;;;4980147;28;20462;-71
2021/12/25 02:25:35;;;;;;;1.45;1.10;;;;;;;;;;4985024;28;20053;-75
2021/12/25 02:28:05;;;;;;;1.88;1.00;;;;;;;;;;4986225;28;20057;-78
2021/12/25 02:30:31;;;;;;;2.10;1.00;;;;;;;;;;4984514;28;20495;-80
2021/12/25 02:32:58;;;;;;;1.33;1.00;;;;;;;;;;4984480;28;20272;-73
2021/12/25 02:35:26;;;;;;;1.88;1.05;;;;;;;;;;5006257;28;20051;-73
2021/12/25 02:37:53;;;;;;;1.75;1.10;;;;;;;;;;4989914;28;20359;-75
2021/12/25 02:40:19;;;;;;;1.10;0.90;;;;;;;;;;4988216;28;20059;-71
2021/12/25 02:42:45;;;;;;;1.40;1.10;;;;;;;;;;5006887;28;20057;-78
2021/12/25 02:45:16;;;;;;;1.67;1.00;;;;;;;;;;4991257;28;20054;-74
2021/12/25 02:47:45;;;;;;;1.60;1.10;;;;;;;;;;5008668;28;20452;-79
2021/12/25 02:50:11;;;;;;;1.80;1.10;;;;;;;;;;5007044;28;20435;-75
2021/12/25 02:52:39;;;;;;;1.17;0.93;;;;;;;;;;5004364;28;20072;-77
2021/12/25 02:55:06;;;;;;;2.40;1.55;;;;;;;;;;5007708;28;20502;-76
2021/12/25 02:57:32;;;;;;;1.13;1.00;;;;;;;;;;4988486;28;20060;-72
2021/12/25 02:59:58;;;;;;;1.67;1.13;;;;;;;;;;4988202;28;20059;-73
2021/12/25 03:02:25;;;;;;;1.83;1.02;;;;;;;;;;5003177;28;20146;-73
2021/12/25 03:04:52;;;;;;;3.03;1.10;;;;;;;;;;5007129;28;20053;-74
2021/12/25 03:07:18;;;;;;;1.25;0.90;;;;;;;;;;5013202;28;20045;-71
2021/12/25 03:09:45;;;;;;;1.13;0.98;;;;;;;;;;4994399;28;20048;-75
2021/12/25 03:12:14;;;;;;;1.50;1.10;;;;;;;;;;5009452;28;21153;-77
2021/12/25 03:15:26;;;;;;;1.42;0.98;;;;;;;;;;4995573;28;20093;-72
2021/12/25 03:17:37;;;;;;;2.00;1.20;;;;;;;;;;4991719;28;20140;-75
2021/12/25 03:20:07;;;;;;;1.02;0.85;;;;;;;;;;5008736;28;20081;-75
2021/12/25 03:22:33;;;;;;;1.33;1.08;;;;;;;;;;4967443;28;20057;-77
2021/12/25 03:25:00;;;;;;;1.23;0.90;;;;;;;;;;4992331;28;20057;-72
2021/12/25 03:27:26;;;;;;;1.30;1.05;;;;;;;;;;4996051;28;20108;-74
2021/12/25 03:29:53;;;;;;;1.73;1.10;;;;;;;;;;5010366;28;20056;-74
2021/12/25 03:32:19;;;;;;;1.38;0.90;;;;;;;;;;4987591;28;20458;-77
2021/12/25 03:34:45;;;;;;;2.08;1.10;;;;;;;;;;4991388;28;20049;-74
2021/12/25 03:37:11;;;;;;;1.60;0.98;;;;;;;;;;4993191;28;20053;-80
2021/12/25 03:39:37;;;;;;;2.72;1.10;;;;;;;;;;4974584;28;20557;-78
2021/12/25 03:42:03;;;;;;;2.00;1.10;;;;;;;;;;4971122;28;20533;-72
2021/12/25 03:44:31;;;;;;;4.07;1.10;;;;;;;;;;4990414;28;20053;-78
2021/12/25 03:47:03;;;;;;;1.60;1.13;;;;;;;;;;4974882;28;20080;-72
2021/12/25 03:57:53;;;;;;;1.42;1.00;;;;;;;;;;4990351;28;20088;-70
2021/12/25 04:00:27;;;;;;;1.15;1.00;;;;;;;;;;5005875;28;20057;-75
2021/12/25 04:02:58;;;;;;;1.20;1.00;;;;;;;;;;4985212;28;20057;-72
2021/12/25 04:05:28;;;;;;;2.00;1.25;;;;;;;;;;5007018;28;20837;-75
2021/12/25 04:08:00;;;;;;;1.67;0.93;;;;;;;;;;5010332;28;20072;-73
2021/12/25 04:10:29;;;;;;;1.58;0.90;;;;;;;;;;5006444;28;20057;-78
2021/12/25 04:12:56;;;;;;;1.10;0.80;;;;;;;;;;5004358;28;20140;-74
2021/12/25 04:15:22;;;;;;;1.45;0.90;;;;;;;;;;5007071;28;21234;-77
2021/12/25 04:17:49;;;;;;;1.48;0.90;;;;;;;;;;4990596;28;20519;-72
2021/12/25 04:20:16;;;;;;;1.60;1.08;;;;;;;;;;5006399;28;20562;-70
2021/12/25 04:22:49;;;;;;;1.88;1.00;;;;;;;;;;4983885;28;20054;-74
2021/12/25 04:25:21;;;;;;;1.30;0.82;;;;;;;;;;4988495;28;20049;-79
2021/12/25 04:27:48;;;;;;;2.30;1.08;;;;;;;;;;4988801;28;20055;-77
2021/12/25 04:31:07;;;;;;;2.30;1.10;;;;;;;;;;4988856;28;20061;-72
2021/12/25 05:05:30;;;;;;;2.22;0.82;;;;;;;;;;5008450;28;20274;-73
2021/12/25 05:07:57;;;;;;;2.13;0.80;;;;;;;;;;5008901;28;20061;-75
2021/12/25 05:10:23;;;;;;;2.53;1.13;;;;;;;;;;5006934;28;20049;-72
2021/12/25 05:12:49;;;;;;;3.50;0.90;;;;;;;;;;4987502;28;20886;-76
2021/12/25 05:15:15;;;;;;;2.53;1.50;;;;;;;;;;4990335;28;20068;-76
2021/12/25 05:17:41;;;;;;;1.40;0.70;;;;;;;;;;4988844;28;20058;-75
2021/12/25 05:20:09;;;;;;;1.00;0.90;;;;;;;;;;4988384;28;20569;-74
2021/12/25 05:22:35;;;;;;;1.17;0.90;;;;;;;;;;4984677;28;20514;-73
2021/12/25 05:25:03;;;;;;;2.08;0.98;;;;;;;;;;5007985;28;20056;-73
2021/12/25 05:27:29;;;;;;;0.80;0.70;;;;;;;;;;4988893;28;20072;-75
2021/12/25 05:29:55;;;;;;;2.92;1.02;;;;;;;;;;4985533;28;20107;-72
2021/12/25 05:32:21;;;;;;;1.17;0.88;;;;;;;;;;4983710;28;20136;-75
2021/12/25 05:34:48;;;;;;;1.38;0.70;;;;;;;;;;5004953;28;20053;-75
2021/12/25 05:37:15;;;;;;;1.25;0.80;;;;;;;;;;5005740;28;20283;-74
2021/12/25 05:39:49;;;;;;;2.10;0.80;;;;;;;;;;5001498;28;20053;-76
2021/12/25 05:42:17;;;;;;;1.35;0.85;;;;;;;;;;5001489;28;20064;-76
2021/12/25 05:44:43;;;;;;;1.58;0.90;;;;;;;;;;5005915;28;20507;-76
2021/12/25 05:47:10;;;;;;;1.17;0.90;;;;;;;;;;4987718;28;20068;-74
2021/12/25 05:49:36;;;;;;;0.73;0.70;;;;;;;;;;5003977;28;20041;-77
2021/12/25 05:52:03;;;;;;;1.73;1.02;;;;;;;;;;4983031;28;20575;-75
2021/12/25 05:54:29;;;;;;;3.13;0.70;;;;;;;;;;5004427;28;20053;-76
2021/12/25 05:56:56;;;;;;;1.52;0.80;;;;;;;;;;4985419;28;20688;-75
2021/12/25 05:59:22;;;;;;;5.53;1.00;;;;;;;;;;4983396;28;20053;-80
2021/12/25 06:01:48;;;;;;;1.48;0.75;;;;;;;;;;4978929;28;20049;-75
2021/12/25 06:04:15;;;;;;;1.08;0.88;;;;;;;;;;4985794;28;20064;-71
2021/12/25 06:06:41;;;;;;;2.42;0.75;;;;;;;;;;4985999;28;20491;-79
2021/12/25 06:09:07;;;;;;;1.52;0.75;;;;;;;;;;4984744;28;20148;-79
2021/12/25 06:11:36;;;;;;;3.00;1.05;;;;;;;;;;5001569;28;20049;-79
2021/12/25 06:14:11;;;;;;;1.50;0.80;;;;;;;;;;5007160;28;20069;-77
2021/12/25 06:16:38;;;;;;;2.33;0.90;;;;;;;;;;4984027;28;20057;-77
2021/12/25 06:19:05;;;;;;;1.92;0.88;;;;;;;;;;4999974;28;20084;-75
2021/12/25 06:21:31;;;;;;;1.83;0.80;;;;;;;;;;4999549;28;20049;-74
2021/12/25 06:24:01;;;;;;;1.60;0.80;;;;;;;;;;5002224;28;20534;-74
2021/12/25 06:26:28;;;;;;;1.63;0.80;;;;;;;;;;5002375;28;20858;-79
2021/12/25 06:28:55;;;;;;;2.00;1.10;;;;;;;;;;5003608;28;20057;-77
2021/12/25 06:31:22;;;;;;;2.33;1.00;;;;;;;;;;5002470;28;20425;-72
2021/12/25 06:33:48;;;;;;;2.60;1.00;;;;;;;;;;4987751;28;20500;-74
2021/12/25 06:36:15;;;;;;;2.92;1.20;;;;;;;;;;5004204;28;20057;-72
2021/12/25 06:38:42;;;;;;;2.97;0.95;;;;;;;;;;4985324;28;20057;-76
2021/12/25 06:41:10;;;;;;;2.60;1.10;;;;;;;;;;5002288;28;20050;-77
2021/12/25 06:43:37;;;;;;;2.28;1.10;;;;;;;;;;5009093;28;20497;-75
2021/12/25 06:46:03;;;;;;;2.38;1.10;;;;;;;;;;4991024;28;20053;-75
2021/12/25 06:48:30;;;;;;;1.25;0.90;;;;;;;;;;4990819;28;20131;-75
2021/12/25 06:50:56;;;;;;;2.13;0.85;;;;;;;;;;4988034;28;20068;-74
2021/12/25 06:53:22;;;;;;;5.35;1.08;;;;;;;;;;4987510;28;20064;-74
2021/12/25 06:55:49;;;;;;;1.73;1.00;;;;;;;;;;5008757;28;20088;-77
2021/12/25 06:58:15;;;;;;;2.65;1.20;;;;;;;;;;5009536;28;20664;-74
2021/12/25 07:00:41;;;;;;;1.70;1.00;;;;;;;;;;4971952;28;20049;-74
2021/12/25 07:03:08;;;;;;;3.53;1.45;;;;;;;;;;5004385;28;20049;-74
2021/12/25 07:05:34;;;;;;;3.22;1.20;;;;;;;;;;5009729;28;20065;-77
2021/12/25 07:08:01;;;;;;;2.22;0.95;;;;;;;;;;4993579;28;20507;-77
2021/12/25 07:10:28;;;;;;;2.20;1.00;;;;;;;;;;4981900;28;20077;-74
2021/12/25 07:12:55;;;;;;;1.85;0.85;;;;;;;;;;5001486;28;20140;-73
2021/12/25 07:15:21;;;;;;;2.22;0.90;;;;;;;;;;5006248;28;20092;-75
2021/12/25 07:17:47;;;;;;;1.65;0.82;;;;;;;;;;4970012;28;20053;-71
2021/12/25 07:20:13;;;;;;;1.25;0.93;;;;;;;;;;5003445;28;20052;-79
2021/12/25 07:22:40;;;;;;;2.97;1.00;;;;;;;;;;5003395;28;20477;-76
2021/12/25 07:25:08;;;;;;;1.85;1.00;;;;;;;;;;4990537;28;20094;-75
2021/12/25 07:27:34;;;;;;;3.90;1.00;;;;;;;;;;5008810;28;20049;-76
2021/12/25 07:30:02;;;;;;;2.83;0.80;;;;;;;;;;5013430;28;21337;-76
2021/12/25 07:32:29;;;;;;;2.95;1.60;;;;;;;;;;5005714;28;20080;-78
2021/12/25 07:34:56;;;;;;;3.60;1.05;;;;;;;;;;4990864;28;20055;-77
2021/12/25 07:37:22;;;;;;;3.30;1.00;;;;;;;;;;4974717;28;20065;-75
2021/12/25 07:39:48;;;;;;;3.72;1.30;;;;;;;;;;4972797;28;20645;-73
2021/12/25 07:42:14;;;;;;;2.58;1.17;;;;;;;;;;5005485;28;20148;-81
2021/12/25 07:44:40;;;;;;;2.88;1.23;;;;;;;;;;4989480;28;20110;-74
2021/12/25 07:47:10;;;;;;;3.28;1.10;;;;;;;;;;5009579;28;20034;-79
2021/12/25 07:49:37;;;;;;;2.78;1.10;;;;;;;;;;4979429;28;20490;-76
2021/12/25 07:52:05;;;;;;;6.38;1.40;;;;;;;;;;5004700;28;20065;-77
2021/12/25 07:54:31;;;;;;;2.55;1.08;;;;;;;;;;5005592;28;20053;-74
2021/12/25 07:56:57;;;;;;;4.60;1.30;;;;;;;;;;4986473;28;20608;-71
2021/12/25 07:59:23;;;;;;;7.32;1.35;;;;;;;;;;4989473;28;20065;-69
2021/12/25 08:01:49;;;;;;;4.47;1.17;;;;;;;;;;5005800;28;20878;-76
2021/12/25 08:04:18;;;;;;;2.67;1.00;;;;;;;;;;5007931;28;20069;-73
2021/12/25 08:06:45;;;;;;;3.15;1.20;;;;;;;;;;5011491;28;20054;-69
2021/12/25 08:09:11;;;;;;;3.00;1.23;;;;;;;;;;5006188;28;20049;-73
2021/12/25 08:11:37;;;;;;;4.70;1.00;;;;;;;;;;4985982;28;20058;-71
2021/12/25 08:14:04;;;;;;;1.85;0.82;;;;;;;;;;4976615;28;20110;-73
2021/12/25 08:16:31;;;;;;;2.63;1.10;;;;;;;;;;4991038;28;20588;-78
2021/12/25 08:18:57;;;;;;;2.30;0.85;;;;;;;;;;5009139;28;20057;-75
2021/12/25 08:21:23;;;;;;;2.67;1.20;;;;;;;;;;4987342;28;20434;-76
2021/12/25 08:23:50;;;;;;;2.97;1.10;;;;;;;;;;5011047;28;20077;-73
2021/12/25 08:26:16;;;;;;;3.42;1.23;;;;;;;;;;4991467;28;20085;-68
2021/12/25 08:28:44;;;;;;;3.38;1.10;;;;;;;;;;5006311;28;20115;-75
2021/12/25 08:31:10;;;;;;;2.17;1.00;;;;;;;;;;5009227;28;20127;-78
2021/12/25 08:33:38;;;;;;;2.65;1.10;;;;;;;;;;4986990;28;20510;-78
2021/12/25 08:36:04;;;;;;;2.45;1.20;;;;;;;;;;5006167;28;20564;-77
2021/12/25 08:38:30;;;;;;;1.75;1.05;;;;;;;;;;4988846;28;20619;-74
2021/12/25 08:40:56;;;;;;;3.85;1.10;;;;;;;;;;5007258;28;20469;-75
2021/12/25 08:43:32;;;;;;;5.20;1.20;;;;;;;;;;5002968;28;20197;-72
2021/12/25 08:46:03;;;;;;;2.05;1.10;;;;;;;;;;4989596;28;20133;-72
2021/12/25 08:48:30;;;;;;;2.35;1.00;;;;;;;;;;4990941;28;21518;-74
2021/12/25 08:50:59;;;;;;;5.75;1.40;;;;;;;;;;5003962;28;20132;-73
2021/12/25 08:53:27;;;;;;;2.13;1.00;;;;;;;;;;4989918;28;20131;-73
2021/12/25 08:55:56;;;;;;;2.95;1.20;;;;;;;;;;5012900;28;20088;-75
2021/12/25 08:58:24;;;;;;;3.10;0.98;;;;;;;;;;4965877;28;20112;-71
2021/12/25 09:00:55;;;;;;;4.18;1.10;;;;;;;;;;5014971;28;20053;-69
2021/12/25 09:03:25;;;;;;;4.38;1.20;;;;;;;;;;4990690;28;20057;-70
2021/12/25 09:05:56;;;;;;;4.40;1.20;;;;;;;;;;4993893;28;20534;-69
2021/12/25 09:08:23;;;;;;;3.67;1.50;;;;;;;;;;4995026;28;20132;-74
2021/12/25 09:10:50;;;;;;;4.75;1.70;;;;;;;;;;4996604;28;20064;-69
2021/12/25 09:13:16;;;;;;;2.92;1.30;;;;;;;;;;4983360;28;20054;-69
2021/12/25 09:15:43;;;;;;;4.75;1.85;;;;;;;;;;5009831;28;20068;-79
2021/12/25 09:18:09;;;;;;;5.30;1.65;;;;;;;;;;5010876;28;20067;-74
2021/12/25 09:20:36;;;;;;;4.93;1.73;;;;;;;;;;4977914;28;20069;-77
2021/12/25 09:23:02;;;;;;;4.38;1.73;;;;;;;;;;5009487;28;20544;-77
2021/12/25 09:25:29;;;;;;;5.05;1.70;;;;;;;;;;4990092;28;20140;-80
2021/12/25 09:27:57;;;;;;;4.38;1.83;;;;;;;;;;4993393;28;20049;-76
2021/12/25 09:30:25;;;;;;;3.78;1.60;;;;;;;;;;5014760;28;20059;-72
2021/12/25 09:32:51;;;;;;;5.72;1.63;;;;;;;;;;5016417;28;20486;-68
2021/12/25 09:35:18;;;;;;;3.88;1.58;;;;;;;;;;5011579;28;20466;-68
2021/12/25 09:37:44;;;;;;;4.53;2.10;;;;;;;;;;5008019;28;20049;-73
2021/12/25 09:40:11;;;;;;;4.70;1.95;;;;;;;;;;5008241;28;20052;-77
2021/12/25 09:42:40;;;;;;;5.25;1.88;;;;;;;;;;5012838;28;20076;-77
2021/12/25 09:45:08;;;;;;;6.15;1.80;;;;;;;;;;4993250;28;20436;-74
2021/12/25 09:47:35;;;;;;;5.35;2.15;;;;;;;;;;5011228;28;20509;-78
2021/12/25 09:50:02;;;;;;;3.60;1.77;;;;;;;;;;5014217;28;20218;-74
2021/12/25 09:52:28;;;;;;;4.18;1.55;;;;;;;;;;4994461;28;20057;-74
2021/12/25 09:54:55;;;;;;;3.60;1.60;;;;;;;;;;5014930;28;20057;-76
2021/12/25 09:57:21;;;;;;;4.53;1.80;;;;;;;;;;4994366;28;20056;-76
2021/12/25 09:59:48;;;;;;;4.90;1.70;;;;;;;;;;4995523;28;20532;-71
2021/12/25 10:02:16;;;;;;;3.30;1.30;;;;;;;;;;4967469;28;20041;-72
2021/12/25 10:04:51;;;;;;;5.95;1.77;;;;;;;;;;5005547;28;20053;-70
2021/12/25 10:07:23;;;;;;;6.35;1.60;;;;;;;;;;5009006;28;20628;-70
2021/12/25 10:10:07;;;;;;;4.28;1.40;;;;;;;;;;5000213;28;20072;-78
2021/12/25 10:12:44;;;;;;;7.00;1.95;;;;;;;;;;5017813;28;20053;-73
2021/12/25 10:15:25;;;;;;;6.00;1.85;;;;;;;;;;5022913;28;20056;-69
2021/12/25 10:17:55;;;;;;;6.60;1.80;;;;;;;;;;5017895;28;20476;-68
2021/12/25 10:20:30;;;;;;;5.45;1.75;;;;;;;;;;5004370;28;20060;-67
2021/12/25 10:23:15;;;;;;;4.78;1.88;;;;;;;;;;5015623;28;20061;-71
2021/12/25 10:25:43;;;;;;;7.97;1.70;;;;;;;;;;5011395;28;20049;-76
2021/12/25 10:28:10;;;;;;;3.28;1.60;;;;;;;;;;4989704;28;20521;-76
2021/12/25 10:30:59;;;;;;;6.13;1.95;;;;;;;;;;5010471;28;20491;-77
2021/12/25 10:33:34;;;;;;;4.63;1.85;;;;;;;;;;5004966;28;20656;-75
2021/12/25 10:36:22;;;;;;;2.22;1.23;;;;;;;;;;5008750;28;20054;-73
2021/12/25 10:38:58;;;;;;;5.22;1.63;;;;;;;;;;4982142;28;20458;-76
2021/12/25 10:41:25;;;;;;;3.80;1.50;;;;;;;;;;4993898;28;20933;-73
2021/12/25 10:44:08;;;;;;;5.43;1.88;;;;;;;;;;5013331;28;20057;-76
2021/12/25 10:46:58;;;;;;;4.97;1.77;;;;;;;;;;4990784;28;20418;-75
2021/12/25 10:49:33;;;;;;;6.68;1.90;;;;;;;;;;5005941;28;20488;-78
2021/12/25 10:52:21;;;;;;;3.20;1.80;;;;;;;;;;5008309;28;20641;-76
2021/12/25 10:54:55;;;;;;;7.93;1.83;;;;;;;;;;5013921;28;20199;-69
2021/12/25 10:57:38;;;;;;;6.05;1.60;;;;;;;;;;4993150;28;20256;-71
2021/12/25 11:00:07;;;;;;;3.42;1.20;;;;;;;;;;5011563;28;20147;-70
2021/12/25 11:02:42;;;;;;;10.80;1.70;;;;;;;;;;4987913;28;20076;-72
2021/12/25 11:05:22;;;;;;;5.20;1.60;;;;;;;;;;5007283;28;20128;-73
2021/12/25 11:08:08;;;;;;;3.95;1.10;;;;;;;;;;4995945;28;20230;-79
2021/12/25 11:10:56;;;;;;;2.75;1.10;;;;;;;;;;4985167;28;20065;-82
2021/12/25 11:13:31;;;;;;;2.72;1.40;;;;;;;;;;5013117;28;20511;-71
2021/12/25 11:16:11;;;;;;;3.63;1.52;;;;;;;;;;5016276;28;20061;-69
2021/12/25 11:19:15;;;;;;;6.07;1.40;;;;;;;;;;5013657;28;20497;-75
2021/12/25 11:21:42;;;;;;;3.70;1.30;;;;;;;;;;5008839;28;20546;-74
2021/12/25 11:24:20;;;;;;;2.65;1.13;;;;;;;;;;5005140;28;20056;-73
2021/12/25 11:26:59;;;;;;;3.22;1.00;;;;;;;;;;5003323;28;20590;-80
2021/12/25 11:29:28;;;;;;;4.28;1.17;;;;;;;;;;5024634;28;20061;-68
2021/12/25 11:31:56;;;;;;;4.28;1.38;;;;;;;;;;5007469;28;20045;-70
2021/12/25 11:34:24;;;;;;;3.40;1.42;;;;;;;;;;5025626;28;20457;-69
2021/12/25 11:36:53;;;;;;;4.97;1.60;;;;;;;;;;5006717;28;20148;-70
2021/12/25 11:39:21;;;;;;;6.47;1.90;;;;;;;;;;5009893;28;20872;-69
2021/12/25 11:41:49;;;;;;;5.22;1.80;;;;;;;;;;5024609;28;20869;-69
2021/12/25 11:44:32;;;;;;;4.97;1.45;;;;;;;;;;5011083;28;20137;-70
2021/12/25 11:46:58;;;;;;;5.38;2.00;;;;;;;;;;5029509;28;20066;-69
2021/12/25 11:49:25;;;;;;;4.35;1.33;;;;;;;;;;5027601;28;20076;-72
2021/12/25 11:51:51;;;;;;;2.90;1.30;;;;;;;;;;5008648;28;20112;-69
2021/12/25 11:54:56;;;;;;;4.95;1.50;;;;;;;;;;5010459;28;20064;-73
2021/12/25 11:59:48;;;;;;;6.07;1.40;;;;;;;;;;5011343;28;20060;-74
2021/12/25 12:02:38;;;;;;;3.80;1.15;;;;;;;;;;5029993;28;20489;-71
2021/12/25 12:05:36;;;;;;;3.10;1.20;;;;;;;;;;5031930;28;20053;-69
2021/12/25 12:08:10;;;;;;;2.65;1.40;;;;;;;;;;5013974;28;20110;-72
2021/12/25 12:10:45;;;;;;;4.38;1.40;;;;;;;;;;5029889;28;20104;-70
2021/12/25 12:13:15;;;;;;;4.13;1.23;;;;;;;;;;5026313;28;20077;-73
2021/12/25 12:15:47;;;;;;;2.55;1.38;;;;;;;;;;5029134;28;20121;-68
2021/12/25 12:18:24;;;;;;;2.38;1.10;;;;;;;;;;5005829;28;20046;-73
2021/12/25 12:20:51;;;;;;;4.95;1.25;;;;;;;;;;5003371;28;20080;-79
2021/12/25 12:23:56;;;;;;;2.95;1.50;;;;;;;;;;5004297;28;20164;-73
2021/12/25 12:27:02;;;;;;;4.00;1.33;;;;;;;;;;5022642;28;20246;-69
2021/12/25 12:29:49;;;;;;;3.47;1.30;;;;;;;;;;5022945;28;20537;-68
2021/12/25 12:32:19;;;;;;;2.30;0.98;;;;;;;;;;5027141;28;20048;-74
2021/12/25 12:34:51;;;;;;;1.95;1.13;;;;;;;;;;5010330;28;20046;-70
2021/12/25 12:37:17;;;;;;;5.35;1.42;;;;;;;;;;5023745;28;20095;-71
2021/12/25 12:40:05;;;;;;;4.63;1.45;;;;;;;;;;5026251;28;20073;-71
2021/12/25 12:42:41;;;;;;;3.22;1.40;;;;;;;;;;5008697;28;20229;-71
2021/12/25 12:45:15;;;;;;;4.65;1.80;;;;;;;;;;5026527;28;20083;-69
2021/12/25 12:48:01;;;;;;;;;;;;;;;;;;5007866;28;20067;-78
2021/12/25 12:50:33;;;;;;;2.95;0.80;;;;;;;;;;5000701;28;19929;-72
2021/12/25 12:53:01;;;;;;;2.47;0.80;;;;;;;;;;5024742;28;20065;-74
2021/12/25 12:55:31;;;;;;;4.13;0.90;;;;;;;;;;5025316;28;20148;-69
2021/12/25 12:58:06;;;;;;;1.65;0.93;;;;;;;;;;5027035;28;20054;-70
2021/12/25 13:00:33;;;;;;;1.90;0.90;;;;;;;;;;5026373;28;20081;-72
2021/12/25 13:03:01;;;;;;;1.58;0.90;;;;;;;;;;5027322;28;20067;-68
2021/12/25 13:05:38;;;;;;;1.30;0.82;;;;;;;;;;5009807;28;20056;-76
2021/12/25 13:08:28;;;;;;;2.85;0.80;;;;;;;;;;5029819;28;20128;-71
2021/12/25 13:11:03;;;;;;;4.82;1.27;;;;;;;;;;5025784;28;20049;-69
2021/12/25 13:13:39;;;;;;;3.30;1.20;;;;;;;;;;5006335;28;20071;-72
2021/12/25 13:16:07;;;;;;;5.07;1.40;;;;;;;;;;5024303;28;20059;-71
2021/12/25 13:18:40;;;;;;;2.47;0.90;;;;;;;;;;5027978;28;20045;-72
2021/12/25 13:21:16;;;;;;;1.60;0.75;;;;;;;;;;5007424;28;20045;-73
2021/12/25 13:23:51;;;;;;;2.63;1.00;;;;;;;;;;5007127;28;20487;-70
2021/12/25 13:26:22;;;;;;;3.10;1.40;;;;;;;;;;5009050;28;20060;-71
2021/12/25 13:28:50;;;;;;;2.53;1.40;;;;;;;;;;5009195;28;20057;-80
2021/12/25 13:31:21;;;;;;;2.92;1.25;;;;;;;;;;4989479;28;20046;-78
2021/12/25 13:33:54;;;;;;;2.78;1.30;;;;;;;;;;5022511;28;20064;-68
2021/12/25 13:36:23;;;;;;;3.17;1.17;;;;;;;;;;5023591;28;20126;-70
2021/12/25 13:38:58;;;;;;;2.60;1.02;;;;;;;;;;5023554;28;20110;-76
2021/12/25 13:41:31;;;;;;;2.40;1.10;;;;;;;;;;5024712;28;20042;-71
2021/12/25 13:44:23;;;;;;;2.95;1.10;;;;;;;;;;5009235;28;20056;-73
2021/12/25 13:46:58;;;;;;;2.80;1.35;;;;;;;;;;5007063;28;20049;-73
2021/12/25 13:49:32;;;;;;;2.53;1.05;;;;;;;;;;5023695;28;20084;-68
2021/12/25 13:52:06;;;;;;;8.05;2.53;;;;;;;;;;5023897;28;20144;-71
2021/12/25 13:54:34;;;;;;;3.65;1.10;;;;;;;;;;4989164;28;20482;-73
2021/12/25 13:57:01;;;;;;;6.97;1.15;;;;;;;;;;5022161;28;20141;-69
2021/12/25 13:59:28;;;;;;;6.95;1.40;;;;;;;;;;5024508;28;20104;-69
2021/12/25 14:02:13;;;;;;;2.97;1.27;;;;;;;;;;5024373;28;20049;-69
2021/12/25 14:04:41;;;;;;;3.50;1.50;;;;;;;;;;5007021;28;20061;-82
2021/12/25 14:07:09;;;;;;;2.90;1.55;;;;;;;;;;5011668;28;20053;-73
2021/12/25 14:09:36;;;;;;;3.58;1.33;;;;;;;;;;5023429;28;20045;-69
2021/12/25 14:12:05;;;;;;;5.45;1.38;;;;;;;;;;5023360;28;20104;-70
2021/12/25 14:14:32;;;;;;;5.40;1.45;;;;;;;;;;5008608;28;20045;-70
2021/12/25 14:16:59;;;;;;;3.35;1.95;;;;;;;;;;5011263;28;20474;-68
2021/12/25 14:19:31;;;;;;;3.05;1.60;;;;;;;;;;4989775;28;20902;-70
2021/12/25 14:22:01;;;;;;;3.75;1.40;;;;;;;;;;5007065;28;20499;-69
2021/12/25 14:24:38;;;;;;;4.10;1.50;;;;;;;;;;5007405;28;20061;-70
2021/12/25 14:27:25;;;;;;;4.55;1.27;;;;;;;;;;5025115;28;20085;-70
2021/12/25 14:29:51;;;;;;;3.00;1.25;;;;;;;;;;5023970;28;20534;-74
2021/12/25 14:32:25;;;;;;;2.72;1.23;;;;;;;;;;5012191;28;20037;-70
2021/12/25 14:34:53;;;;;;;2.63;1.30;;;;;;;;;;5014611;28;20053;-72
2021/12/25 14:37:37;;;;;;;2.72;1.50;;;;;;;;;;5012624;28;20569;-70
2021/12/25 14:40:16;;;;;;;1.58;1.02;;;;;;;;;;5008368;28;20117;-72
2021/12/25 14:42:45;;;;;;;2.55;1.10;;;;;;;;;;5011138;28;20652;-71
2021/12/25 14:45:12;;;;;;;4.50;1.13;;;;;;;;;;5026952;28;20046;-75
2021/12/25 14:47:51;;;;;;;2.33;1.17;;;;;;;;;;5010299;28;20143;-71
2021/12/25 14:50:21;;;;;;;3.25;1.05;;;;;;;;;;5009911;28;20069;-70
2021/12/25 14:53:09;;;;;;;4.38;1.20;;;;;;;;;;5006459;28;20140;-67
2021/12/25 14:55:40;;;;;;;2.60;1.15;;;;;;;;;;4991750;28;20585;-72
2021/12/25 14:58:21;;;;;;;2.10;1.05;;;;;;;;;;5010538;28;20145;-71
2021/12/25 15:00:51;;;;;;;1.98;1.10;;;;;;;;;;5034465;28;20049;-71
2021/12/25 15:03:21;;;;;;;2.80;1.42;;;;;;;;;;5034676;28;20053;-71
2021/12/25 15:05:54;;;;;;;1.75;1.00;;;;;;;;;;5015203;28;20057;-70
2021/12/25 15:08:24;;;;;;;1.65;1.00;;;;;;;;;;5020520;28;20487;-71
2021/12/25 15:10:53;;;;;;;2.85;1.00;;;;;;;;;;5034808;28;20049;-70
2021/12/25 15:13:23;;;;;;;2.30;0.85;;;;;;;;;;5013714;28;20076;-69
2021/12/25 15:15:58;;;;;;;2.25;0.80;;;;;;;;;;5032978;28;20053;-70
2021/12/25 15:18:35;;;;;;;4.15;1.20;;;;;;;;;;5032876;28;20135;-68
2021/12/25 15:21:14;;;;;;;1.88;1.02;;;;;;;;;;5034889;28;20080;-72
2021/12/25 15:23:40;;;;;;;1.80;0.93;;;;;;;;;;5030856;28;20045;-76
2021/12/25 15:26:15;;;;;;;4.47;1.10;;;;;;;;;;5032695;28;20045;-68
2021/12/25 15:28:44;;;;;;;5.38;1.20;;;;;;;;;;5013556;28;20052;-74
2021/12/25 15:31:37;;;;;;;2.28;0.90;;;;;;;;;;5013043;28;20045;-71
2021/12/25 15:34:10;;;;;;;1.15;1.00;;;;;;;;;;5027508;28;20088;-71
2021/12/25 15:36:42;;;;;;;3.70;1.40;;;;;;;;;;5012014;28;20050;-71
2021/12/25 15:39:24;;;;;;;3.92;1.20;;;;;;;;;;5008771;28;20085;-76
2021/12/25 15:41:53;;;;;;;6.30;1.90;;;;;;;;;;4995580;28;20045;-76
2021/12/25 15:44:23;;;;;;;4.95;1.85;;;;;;;;;;5011997;28;20041;-73
2021/12/25 15:46:52;;;;;;;6.97;2.00;;;;;;;;;;5013349;28;20049;-72
2021/12/25 15:49:18;;;;;;;2.97;1.85;;;;;;;;;;5006532;28;20502;-68
2021/12/25 15:51:59;;;;;;;5.93;2.70;;;;;;;;;;5006200;28;20121;-73
2021/12/25 15:54:27;;;;;;;5.35;2.20;;;;;;;;;;5026320;28;20057;-78
2021/12/25 15:56:58;;;;;;;5.95;2.00;;;;;;;;;;5021862;28;20388;-77
2021/12/25 15:59:33;;;;;;;4.55;1.90;;;;;;;;;;5017637;28;20166;-77
2021/12/25 16:02:00;;;;;;;4.55;1.88;;;;;;;;;;5005307;28;20064;-75
2021/12/25 16:04:27;;;;;;;4.43;2.00;;;;;;;;;;4995714;28;20051;-68
2021/12/25 16:06:54;;;;;;;7.88;2.35;;;;;;;;;;4997170;28;20116;-70
2021/12/25 16:09:20;;;;;;;4.47;1.85;;;;;;;;;;5014039;28;20060;-71
2021/12/25 16:11:47;;;;;;;3.67;1.55;;;;;;;;;;4988895;28;20052;-75
2021/12/25 16:14:13;;;;;;;3.13;1.48;;;;;;;;;;5013580;28;20057;-70
2021/12/25 16:16:40;;;;;;;6.80;1.80;;;;;;;;;;5008826;28;20065;-72